sensor_id;sensor_type;location;lat;lon;timestamp;temperature;humidity
73112;HTU21D;61301;51.956;5.876;2022-08-03T00:00:38;26.19;49.56
73112;HTU21D;61301;51.956;5.876;2022-08-03T00:03:05;26.15;49.56
73112;HTU21D;61301;51.956;5.876;2022-08-03T00:05:31;26.08;50.09
73112;HTU21D;61301;51.956;5.876;2022-08-03T00:07:59;26.01;50.06
73112;HTU21D;61301;51.956;5.876;2022-08-03T00:10:25;25.96;50.18
73112;HTU21D;61301;51.956;5.876;2022-08-03T00:12:52;25.91;50.17
73112;HTU21D;61301;51.956;5.876;2022-08-03T00:15:18;25.86;50.27
73112;HTU21D;61301;51.956;5.876;2022-08-03T00:17:45;25.84;50.14
73112;HTU21D;61301;51.956;5.876;2022-08-03T00:20:11;25.86;50.00
73112;HTU21D;61301;51.956;5.876;2022-08-03T00:22:38;25.82;50.31
73112;HTU21D;61301;51.956;5.876;2022-08-03T00:25:04;25.77;50.40
73112;HTU21D;61301;51.956;5.876;2022-08-03T00:27:30;25.69;50.60
73112;HTU21D;61301;51.956;5.876;2022-08-03T00:29:56;25.66;50.56
73112;HTU21D;61301;51.956;5.876;2022-08-03T00:32:22;25.63;50.72
73112;HTU21D;61301;51.956;5.876;2022-08-03T00:34:48;25.59;50.82
73112;HTU21D;61301;51.956;5.876;2022-08-03T00:37:14;25.57;50.73
73112;HTU21D;61301;51.956;5.876;2022-08-03T00:39:40;25.60;50.55
73112;HTU21D;61301;51.956;5.876;2022-08-03T00:42:08;25.60;50.56
73112;HTU21D;61301;51.956;5.876;2022-08-03T00:44:41;25.61;50.44
73112;HTU21D;61301;51.956;5.876;2022-08-03T00:47:08;25.60;50.37
73112;HTU21D;61301;51.956;5.876;2022-08-03T00:49:36;25.56;50.54
73112;HTU21D;61301;51.956;5.876;2022-08-03T00:52:02;25.45;50.63
73112;HTU21D;61301;51.956;5.876;2022-08-03T00:54:29;25.25;51.23
73112;HTU21D;61301;51.956;5.876;2022-08-03T00:56:55;25.10;51.72
73112;HTU21D;61301;51.956;5.876;2022-08-03T00:59:21;25.01;52.14
73112;HTU21D;61301;51.956;5.876;2022-08-03T01:01:47;25.07;51.60
73112;HTU21D;61301;51.956;5.876;2022-08-03T01:04:13;25.09;51.37
73112;HTU21D;61301;51.956;5.876;2022-08-03T01:06:42;25.07;51.53
73112;HTU21D;61301;51.956;5.876;2022-08-03T01:12:02;25.01;51.56
73112;HTU21D;61301;51.956;5.876;2022-08-03T01:14:56;25.05;51.41
73112;HTU21D;61301;51.956;5.876;2022-08-03T01:17:34;25.04;51.42
73112;HTU21D;61301;51.956;5.876;2022-08-03T01:20:11;25.04;52.20
73112;HTU21D;61301;51.956;5.876;2022-08-03T01:31:23;24.91;52.00
73112;HTU21D;61301;51.956;5.876;2022-08-03T01:33:56;24.88;52.54
73112;HTU21D;61301;51.956;5.876;2022-08-03T01:36:29;24.82;52.40
73112;HTU21D;61301;51.956;5.876;2022-08-03T01:39:02;24.79;52.36
73112;HTU21D;61301;51.956;5.876;2022-08-03T01:41:30;24.77;52.20
73112;HTU21D;61301;51.956;5.876;2022-08-03T01:43:59;24.79;52.11
73112;HTU21D;61301;51.956;5.876;2022-08-03T01:46:26;24.77;52.08
73112;HTU21D;61301;51.956;5.876;2022-08-03T01:48:54;24.75;52.07
73112;HTU21D;61301;51.956;5.876;2022-08-03T01:51:21;24.70;52.21
73112;HTU21D;61301;51.956;5.876;2022-08-03T01:53:49;24.64;52.27
73112;HTU21D;61301;51.956;5.876;2022-08-03T01:56:17;24.60;52.28
73112;HTU21D;61301;51.956;5.876;2022-08-03T01:58:45;24.60;52.22
73112;HTU21D;61301;51.956;5.876;2022-08-03T02:01:14;24.58;52.21
73112;HTU21D;61301;51.956;5.876;2022-08-03T02:03:42;24.58;52.13
73112;HTU21D;61301;51.956;5.876;2022-08-03T02:06:10;24.58;52.10
73112;HTU21D;61301;51.956;5.876;2022-08-03T02:08:42;24.60;52.05
73112;HTU21D;61301;51.956;5.876;2022-08-03T02:11:09;24.63;51.92
73112;HTU21D;61301;51.956;5.876;2022-08-03T02:13:37;24.65;51.86
73112;HTU21D;61301;51.956;5.876;2022-08-03T02:16:04;24.69;51.79
73112;HTU21D;61301;51.956;5.876;2022-08-03T02:18:31;24.61;52.06
73112;HTU21D;61301;51.956;5.876;2022-08-03T02:21:01;24.70;51.80
73112;HTU21D;61301;51.956;5.876;2022-08-03T02:23:29;24.71;51.76
73112;HTU21D;61301;51.956;5.876;2022-08-03T02:25:57;24.57;52.24
73112;HTU21D;61301;51.956;5.876;2022-08-03T02:28:34;24.47;52.59
73112;HTU21D;61301;51.956;5.876;2022-08-03T02:31:04;24.48;52.35
73112;HTU21D;61301;51.956;5.876;2022-08-03T02:33:38;24.48;52.37
73112;HTU21D;61301;51.956;5.876;2022-08-03T02:36:06;24.46;52.27
73112;HTU21D;61301;51.956;5.876;2022-08-03T02:38:36;24.41;52.86
73112;HTU21D;61301;51.956;5.876;2022-08-03T02:41:06;24.27;53.76
73112;HTU21D;61301;51.956;5.876;2022-08-03T02:43:35;24.18;53.75
73112;HTU21D;61301;51.956;5.876;2022-08-03T02:46:02;24.09;53.91
73112;HTU21D;61301;51.956;5.876;2022-08-03T02:48:31;24.04;53.82
73112;HTU21D;61301;51.956;5.876;2022-08-03T02:50:59;23.97;53.88
73112;HTU21D;61301;51.956;5.876;2022-08-03T02:53:28;23.94;53.72
73112;HTU21D;61301;51.956;5.876;2022-08-03T02:55:55;23.95;53.60
73112;HTU21D;61301;51.956;5.876;2022-08-03T02:58:22;23.91;53.57
73112;HTU21D;61301;51.956;5.876;2022-08-03T03:00:50;23.91;53.47
73112;HTU21D;61301;51.956;5.876;2022-08-03T03:03:17;23.94;53.37
73112;HTU21D;61301;51.956;5.876;2022-08-03T03:05:44;23.88;53.53
73112;HTU21D;61301;51.956;5.876;2022-08-03T03:08:16;23.82;54.19
73112;HTU21D;61301;51.956;5.876;2022-08-03T03:10:43;23.74;54.40
73112;HTU21D;61301;51.956;5.876;2022-08-03T03:13:11;23.69;54.84
73112;HTU21D;61301;51.956;5.876;2022-08-03T03:15:39;23.68;54.86
73112;HTU21D;61301;51.956;5.876;2022-08-03T03:18:06;23.65;54.59
73112;HTU21D;61301;51.956;5.876;2022-08-03T03:20:36;23.57;55.24
73112;HTU21D;61301;51.956;5.876;2022-08-03T03:23:03;23.56;55.17
73112;HTU21D;61301;51.956;5.876;2022-08-03T03:25:31;23.53;54.86
73112;HTU21D;61301;51.956;5.876;2022-08-03T03:27:58;23.47;54.74
73112;HTU21D;61301;51.956;5.876;2022-08-03T03:30:25;23.45;54.72
73112;HTU21D;61301;51.956;5.876;2022-08-03T03:32:51;23.30;55.33
73112;HTU21D;61301;51.956;5.876;2022-08-03T03:35:17;23.18;56.24
73112;HTU21D;61301;51.956;5.876;2022-08-03T03:37:44;23.07;56.76
73112;HTU21D;61301;51.956;5.876;2022-08-03T03:40:10;23.05;56.48
73112;HTU21D;61301;51.956;5.876;2022-08-03T03:42:36;23.05;56.14
73112;HTU21D;61301;51.956;5.876;2022-08-03T03:45:04;23.07;56.02
73112;HTU21D;61301;51.956;5.876;2022-08-03T03:47:33;23.09;55.67
73112;HTU21D;61301;51.956;5.876;2022-08-03T03:50:00;23.13;55.50
73112;HTU21D;61301;51.956;5.876;2022-08-03T03:52:27;23.17;55.41
73112;HTU21D;61301;51.956;5.876;2022-08-03T03:54:53;23.13;56.30
73112;HTU21D;61301;51.956;5.876;2022-08-03T03:57:19;23.08;55.93
73112;HTU21D;61301;51.956;5.876;2022-08-03T03:59:45;23.03;56.10
73112;HTU21D;61301;51.956;5.876;2022-08-03T04:02:11;23.02;55.86
73112;HTU21D;61301;51.956;5.876;2022-08-03T04:04:37;23.03;55.62
73112;HTU21D;61301;51.956;5.876;2022-08-03T04:07:24;23.05;56.02
73112;HTU21D;61301;51.956;5.876;2022-08-03T04:10:16;23.02;55.94
73112;HTU21D;61301;51.956;5.876;2022-08-03T04:13:03;22.99;55.73
73112;HTU21D;61301;51.956;5.876;2022-08-03T04:15:31;22.99;55.62
73112;HTU21D;61301;51.956;5.876;2022-08-03T04:17:58;22.98;55.59
73112;HTU21D;61301;51.956;5.876;2022-08-03T04:20:30;22.96;55.84
73112;HTU21D;61301;51.956;5.876;2022-08-03T04:22:58;22.95;55.66
73112;HTU21D;61301;51.956;5.876;2022-08-03T04:25:28;22.84;55.92
73112;HTU21D;61301;51.956;5.876;2022-08-03T04:27:55;22.83;55.90
73112;HTU21D;61301;51.956;5.876;2022-08-03T04:30:25;22.93;55.68
73112;HTU21D;61301;51.956;5.876;2022-08-03T04:32:54;22.95;55.77
73112;HTU21D;61301;51.956;5.876;2022-08-03T04:35:23;22.96;55.86
73112;HTU21D;61301;51.956;5.876;2022-08-03T04:37:51;22.99;55.84
73112;HTU21D;61301;51.956;5.876;2022-08-03T04:40:30;23.08;55.81
73112;HTU21D;61301;51.956;5.876;2022-08-03T04:42:57;23.09;56.48
73112;HTU21D;61301;51.956;5.876;2022-08-03T04:45:24;23.10;56.35
73112;HTU21D;61301;51.956;5.876;2022-08-03T04:47:52;23.18;56.78
73112;HTU21D;61301;51.956;5.876;2022-08-03T04:50:19;23.21;57.01
73112;HTU21D;61301;51.956;5.876;2022-08-03T04:53:04;23.22;57.11
73112;HTU21D;61301;51.956;5.876;2022-08-03T04:55:32;23.25;56.94
73112;HTU21D;61301;51.956;5.876;2022-08-03T04:58:00;23.31;56.69
73112;HTU21D;61301;51.956;5.876;2022-08-03T05:00:27;23.36;56.56
73112;HTU21D;61301;51.956;5.876;2022-08-03T05:02:53;23.42;57.00
73112;HTU21D;61301;51.956;5.876;2022-08-03T05:05:20;23.49;56.86
73112;HTU21D;61301;51.956;5.876;2022-08-03T05:07:46;23.52;57.44
73112;HTU21D;61301;51.956;5.876;2022-08-03T05:10:13;23.59;56.89
73112;HTU21D;61301;51.956;5.876;2022-08-03T05:12:39;23.62;57.18
73112;HTU21D;61301;51.956;5.876;2022-08-03T05:15:06;23.68;56.88
73112;HTU21D;61301;51.956;5.876;2022-08-03T05:17:32;23.69;57.43
73112;HTU21D;61301;51.956;5.876;2022-08-03T05:19:59;23.72;57.61
73112;HTU21D;61301;51.956;5.876;2022-08-03T05:22:25;23.81;57.13
73112;HTU21D;61301;51.956;5.876;2022-08-03T05:24:52;23.85;57.37
73112;HTU21D;61301;51.956;5.876;2022-08-03T05:27:17;23.91;57.15
73112;HTU21D;61301;51.956;5.876;2022-08-03T05:29:45;23.98;56.75
73112;HTU21D;61301;51.956;5.876;2022-08-03T05:32:11;24.05;56.90
73112;HTU21D;61301;51.956;5.876;2022-08-03T05:34:37;24.13;56.92
73112;HTU21D;61301;51.956;5.876;2022-08-03T05:37:03;24.21;56.62
73112;HTU21D;61301;51.956;5.876;2022-08-03T05:39:29;24.29;56.42
73112;HTU21D;61301;51.956;5.876;2022-08-03T05:41:55;24.38;56.95
73112;HTU21D;61301;51.956;5.876;2022-08-03T05:44:20;24.40;57.23
73112;HTU21D;61301;51.956;5.876;2022-08-03T05:46:46;24.46;57.09
73112;HTU21D;61301;51.956;5.876;2022-08-03T05:49:12;24.61;57.61
73112;HTU21D;61301;51.956;5.876;2022-08-03T05:51:38;24.70;57.08
73112;HTU21D;61301;51.956;5.876;2022-08-03T05:54:04;24.84;56.32
73112;HTU21D;61301;51.956;5.876;2022-08-03T05:56:30;24.92;55.81
73112;HTU21D;61301;51.956;5.876;2022-08-03T05:58:57;24.80;57.19
73112;HTU21D;61301;51.956;5.876;2022-08-03T06:01:23;24.76;56.97
73112;HTU21D;61301;51.956;5.876;2022-08-03T06:03:49;24.85;57.03
73112;HTU21D;61301;51.956;5.876;2022-08-03T06:06:16;24.88;57.25
73112;HTU21D;61301;51.956;5.876;2022-08-03T06:08:44;24.88;57.58
73112;HTU21D;61301;51.956;5.876;2022-08-03T06:11:11;24.94;57.44
73112;HTU21D;61301;51.956;5.876;2022-08-03T06:13:37;25.01;57.16
73112;HTU21D;61301;51.956;5.876;2022-08-03T06:16:03;25.08;57.11
73112;HTU21D;61301;51.956;5.876;2022-08-03T06:18:30;25.19;56.82
73112;HTU21D;61301;51.956;5.876;2022-08-03T06:20:56;25.12;57.12
73112;HTU21D;61301;51.956;5.876;2022-08-03T06:23:22;25.22;56.71
73112;HTU21D;61301;51.956;5.876;2022-08-03T06:25:48;25.20;56.73
73112;HTU21D;61301;51.956;5.876;2022-08-03T06:28:14;25.32;56.48
73112;HTU21D;61301;51.956;5.876;2022-08-03T06:30:40;25.40;56.29
73112;HTU21D;61301;51.956;5.876;2022-08-03T06:33:06;25.32;56.51
73112;HTU21D;61301;51.956;5.876;2022-08-03T06:35:32;25.50;55.97
73112;HTU21D;61301;51.956;5.876;2022-08-03T06:37:58;25.52;56.15
73112;HTU21D;61301;51.956;5.876;2022-08-03T06:40:24;25.67;55.58
73112;HTU21D;61301;51.956;5.876;2022-08-03T06:42:57;25.63;55.84
73112;HTU21D;61301;51.956;5.876;2022-08-03T06:45:24;25.78;55.26
73112;HTU21D;61301;51.956;5.876;2022-08-03T06:48:01;25.86;54.77
73112;HTU21D;61301;51.956;5.876;2022-08-03T06:50:28;25.87;54.74
73112;HTU21D;61301;51.956;5.876;2022-08-03T06:52:54;25.81;54.39
73112;HTU21D;61301;51.956;5.876;2022-08-03T06:55:20;25.80;54.36
73112;HTU21D;61301;51.956;5.876;2022-08-03T06:57:46;25.81;54.39
73112;HTU21D;61301;51.956;5.876;2022-08-03T07:00:13;25.84;54.20
73112;HTU21D;61301;51.956;5.876;2022-08-03T07:02:39;25.93;54.26
73112;HTU21D;61301;51.956;5.876;2022-08-03T07:05:07;26.06;54.07
73112;HTU21D;61301;51.956;5.876;2022-08-03T07:07:33;26.15;53.75
73112;HTU21D;61301;51.956;5.876;2022-08-03T07:09:59;26.21;53.89
73112;HTU21D;61301;51.956;5.876;2022-08-03T07:12:27;26.26;53.55
73112;HTU21D;61301;51.956;5.876;2022-08-03T07:14:54;26.42;53.18
73112;HTU21D;61301;51.956;5.876;2022-08-03T07:17:21;26.48;52.88
73112;HTU21D;61301;51.956;5.876;2022-08-03T07:19:48;26.51;52.77
73112;HTU21D;61301;51.956;5.876;2022-08-03T07:22:14;26.43;52.56
73112;HTU21D;61301;51.956;5.876;2022-08-03T07:24:40;26.42;52.73
73112;HTU21D;61301;51.956;5.876;2022-08-03T07:27:09;26.57;52.44
73112;HTU21D;61301;51.956;5.876;2022-08-03T07:29:36;26.61;52.30
73112;HTU21D;61301;51.956;5.876;2022-08-03T07:32:03;26.78;52.05
73112;HTU21D;61301;51.956;5.876;2022-08-03T07:34:29;26.83;52.11
73112;HTU21D;61301;51.956;5.876;2022-08-03T07:36:56;26.82;52.24
73112;HTU21D;61301;51.956;5.876;2022-08-03T07:39:22;27.04;51.56
73112;HTU21D;61301;51.956;5.876;2022-08-03T07:41:48;27.11;51.42
73112;HTU21D;61301;51.956;5.876;2022-08-03T07:44:19;27.16;51.12
73112;HTU21D;61301;51.956;5.876;2022-08-03T07:46:45;27.29;51.09
73112;HTU21D;61301;51.956;5.876;2022-08-03T07:49:11;27.44;50.57
73112;HTU21D;61301;51.956;5.876;2022-08-03T07:51:37;27.56;50.22
73112;HTU21D;61301;51.956;5.876;2022-08-03T07:54:04;27.69;49.81
73112;HTU21D;61301;51.956;5.876;2022-08-03T07:56:30;27.65;50.30
73112;HTU21D;61301;51.956;5.876;2022-08-03T07:58:56;27.69;50.38
73112;HTU21D;61301;51.956;5.876;2022-08-03T08:01:22;27.91;49.54
73112;HTU21D;61301;51.956;5.876;2022-08-03T08:03:49;27.95;49.89
73112;HTU21D;61301;51.956;5.876;2022-08-03T08:06:16;28.06;49.01
73112;HTU21D;61301;51.956;5.876;2022-08-03T08:08:42;28.02;49.32
73112;HTU21D;61301;51.956;5.876;2022-08-03T08:11:08;28.19;48.85
73112;HTU21D;61301;51.956;5.876;2022-08-03T08:13:34;28.28;48.73
73112;HTU21D;61301;51.956;5.876;2022-08-03T08:16:02;28.41;48.34
73112;HTU21D;61301;51.956;5.876;2022-08-03T08:18:28;28.50;48.16
73112;HTU21D;61301;51.956;5.876;2022-08-03T08:20:54;28.59;47.36
73112;HTU21D;61301;51.956;5.876;2022-08-03T08:23:21;28.46;47.57
73112;HTU21D;61301;51.956;5.876;2022-08-03T08:25:51;28.53;47.72
73112;HTU21D;61301;51.956;5.876;2022-08-03T08:28:19;28.62;47.18
73112;HTU21D;61301;51.956;5.876;2022-08-03T08:30:45;28.69;47.02
73112;HTU21D;61301;51.956;5.876;2022-08-03T08:33:11;28.85;46.64
73112;HTU21D;61301;51.956;5.876;2022-08-03T08:35:37;28.92;47.03
73112;HTU21D;61301;51.956;5.876;2022-08-03T08:38:04;29.06;46.72
73112;HTU21D;61301;51.956;5.876;2022-08-03T08:40:30;29.19;46.64
73112;HTU21D;61301;51.956;5.876;2022-08-03T08:42:56;29.26;45.54
73112;HTU21D;61301;51.956;5.876;2022-08-03T08:45:22;29.42;45.27
73112;HTU21D;61301;51.956;5.876;2022-08-03T08:47:48;29.34;45.33
73112;HTU21D;61301;51.956;5.876;2022-08-03T08:50:19;29.56;45.19
73112;HTU21D;61301;51.956;5.876;2022-08-03T08:52:47;29.53;45.15
73112;HTU21D;61301;51.956;5.876;2022-08-03T08:55:21;29.76;44.02
73112;HTU21D;61301;51.956;5.876;2022-08-03T08:58:06;29.80;43.04
73112;HTU21D;61301;51.956;5.876;2022-08-03T09:00:34;29.92;43.87
73112;HTU21D;61301;51.956;5.876;2022-08-03T09:03:00;30.05;43.19
73112;HTU21D;61301;51.956;5.876;2022-08-03T09:05:26;30.06;43.26
73112;HTU21D;61301;51.956;5.876;2022-08-03T09:07:57;30.27;43.03
73112;HTU21D;61301;51.956;5.876;2022-08-03T09:10:23;30.49;42.79
73112;HTU21D;61301;51.956;5.876;2022-08-03T09:12:52;30.55;42.71
73112;HTU21D;61301;51.956;5.876;2022-08-03T09:15:23;30.57;42.34
73112;HTU21D;61301;51.956;5.876;2022-08-03T09:17:52;30.68;41.97
73112;HTU21D;61301;51.956;5.876;2022-08-03T09:20:19;30.75;41.74
73112;HTU21D;61301;51.956;5.876;2022-08-03T09:25:41;30.84;41.52
73112;HTU21D;61301;51.956;5.876;2022-08-03T09:28:09;30.96;41.44
73112;HTU21D;61301;51.956;5.876;2022-08-03T09:30:41;31.00;40.91
73112;HTU21D;61301;51.956;5.876;2022-08-03T09:33:11;31.04;40.94
73112;HTU21D;61301;51.956;5.876;2022-08-03T09:38:19;31.13;40.45
73112;HTU21D;61301;51.956;5.876;2022-08-03T09:40:49;31.30;40.22
73112;HTU21D;61301;51.956;5.876;2022-08-03T09:43:15;31.55;40.85
73112;HTU21D;61301;51.956;5.876;2022-08-03T09:45:42;31.61;39.82
73112;HTU21D;61301;51.956;5.876;2022-08-03T09:48:28;31.61;39.61
73112;HTU21D;61301;51.956;5.876;2022-08-03T09:50:57;31.68;40.00
73112;HTU21D;61301;51.956;5.876;2022-08-03T09:53:23;31.90;39.65
73112;HTU21D;61301;51.956;5.876;2022-08-03T09:55:57;31.79;39.33
73112;HTU21D;61301;51.956;5.876;2022-08-03T09:58:25;31.88;39.62
73112;HTU21D;61301;51.956;5.876;2022-08-03T10:01:04;32.09;38.94
73112;HTU21D;61301;51.956;5.876;2022-08-03T10:03:33;32.29;38.99
73112;HTU21D;61301;51.956;5.876;2022-08-03T10:06:17;32.24;39.58
73112;HTU21D;61301;51.956;5.876;2022-08-03T10:09:04;32.42;38.31
73112;HTU21D;61301;51.956;5.876;2022-08-03T10:11:32;32.61;37.48
73112;HTU21D;61301;51.956;5.876;2022-08-03T10:14:04;32.82;37.45
73112;HTU21D;61301;51.956;5.876;2022-08-03T10:16:37;32.93;37.36
73112;HTU21D;61301;51.956;5.876;2022-08-03T10:19:04;33.21;37.13
73112;HTU21D;61301;51.956;5.876;2022-08-03T10:21:36;33.17;36.54
73112;HTU21D;61301;51.956;5.876;2022-08-03T10:24:04;33.27;35.95
73112;HTU21D;61301;51.956;5.876;2022-08-03T10:26:37;33.23;36.00
73112;HTU21D;61301;51.956;5.876;2022-08-03T10:29:06;33.26;36.04
73112;HTU21D;61301;51.956;5.876;2022-08-03T10:31:37;33.44;35.64
73112;HTU21D;61301;51.956;5.876;2022-08-03T10:34:11;33.55;35.76
73112;HTU21D;61301;51.956;5.876;2022-08-03T10:36:40;33.73;35.48
73112;HTU21D;61301;51.956;5.876;2022-08-03T10:39:06;33.80;34.89
73112;HTU21D;61301;51.956;5.876;2022-08-03T10:41:40;33.81;34.28
73112;HTU21D;61301;51.956;5.876;2022-08-03T10:46:43;33.85;34.93
73112;HTU21D;61301;51.956;5.876;2022-08-03T10:49:14;33.89;34.15
73112;HTU21D;61301;51.956;5.876;2022-08-03T10:51:41;33.90;34.47
73112;HTU21D;61301;51.956;5.876;2022-08-03T10:56:59;34.20;34.69
73112;HTU21D;61301;51.956;5.876;2022-08-03T11:02:11;34.42;32.82
73112;HTU21D;61301;51.956;5.876;2022-08-03T11:04:39;34.36;32.67
73112;HTU21D;61301;51.956;5.876;2022-08-03T11:09:42;34.03;32.23
73112;HTU21D;61301;51.956;5.876;2022-08-03T11:12:24;34.00;32.40
73112;HTU21D;61301;51.956;5.876;2022-08-03T11:14:52;34.10;32.73
73112;HTU21D;61301;51.956;5.876;2022-08-03T11:17:19;34.21;32.05
73112;HTU21D;61301;51.956;5.876;2022-08-03T11:19:49;34.39;31.12
73112;HTU21D;61301;51.956;5.876;2022-08-03T11:22:16;34.63;31.54
73112;HTU21D;61301;51.956;5.876;2022-08-03T11:30:09;35.37;31.18
73112;HTU21D;61301;51.956;5.876;2022-08-03T11:33:07;35.53;30.24
73112;HTU21D;61301;51.956;5.876;2022-08-03T11:36:04;35.47;29.83
73112;HTU21D;61301;51.956;5.876;2022-08-03T11:39:16;35.64;29.90
73112;HTU21D;61301;51.956;5.876;2022-08-03T11:44:56;35.82;28.64
73112;HTU21D;61301;51.956;5.876;2022-08-03T11:47:24;35.80;30.36
73112;HTU21D;61301;51.956;5.876;2022-08-03T11:49:57;35.57;29.48
73112;HTU21D;61301;51.956;5.876;2022-08-03T11:56:05;35.84;29.61
73112;HTU21D;61301;51.956;5.876;2022-08-03T11:58:45;36.02;28.56
73112;HTU21D;61301;51.956;5.876;2022-08-03T12:01:16;36.02;29.12
73112;HTU21D;61301;51.956;5.876;2022-08-03T12:03:51;36.24;28.80
73112;HTU21D;61301;51.956;5.876;2022-08-03T12:06:33;36.18;27.63
73112;HTU21D;61301;51.956;5.876;2022-08-03T12:09:26;35.97;27.42
73112;HTU21D;61301;51.956;5.876;2022-08-03T12:11:56;36.09;27.91
73112;HTU21D;61301;51.956;5.876;2022-08-03T12:14:26;36.10;27.04
73112;HTU21D;61301;51.956;5.876;2022-08-03T12:16:53;35.69;27.47
73112;HTU21D;61301;51.956;5.876;2022-08-03T12:19:18;35.62;27.42
73112;HTU21D;61301;51.956;5.876;2022-08-03T12:21:46;35.58;27.91
73112;HTU21D;61301;51.956;5.876;2022-08-03T12:24:13;35.79;27.52
73112;HTU21D;61301;51.956;5.876;2022-08-03T12:26:47;35.81;28.40
73112;HTU21D;61301;51.956;5.876;2022-08-03T12:29:21;35.90;27.97
73112;HTU21D;61301;51.956;5.876;2022-08-03T12:31:47;36.19;27.62
73112;HTU21D;61301;51.956;5.876;2022-08-03T12:34:13;36.16;27.49
73112;HTU21D;61301;51.956;5.876;2022-08-03T12:36:53;36.31;27.01
73112;HTU21D;61301;51.956;5.876;2022-08-03T12:39:25;36.45;27.21
73112;HTU21D;61301;51.956;5.876;2022-08-03T12:41:54;36.68;26.61
73112;HTU21D;61301;51.956;5.876;2022-08-03T12:44:31;36.73;26.00
73112;HTU21D;61301;51.956;5.876;2022-08-03T12:46:59;36.68;26.01
73112;HTU21D;61301;51.956;5.876;2022-08-03T12:49:25;36.57;26.12
73112;HTU21D;61301;51.956;5.876;2022-08-03T12:54:23;36.91;26.17
73112;HTU21D;61301;51.956;5.876;2022-08-03T12:57:01;36.96;26.25
73112;HTU21D;61301;51.956;5.876;2022-08-03T12:59:29;37.08;25.72
73112;HTU21D;61301;51.956;5.876;2022-08-03T13:01:55;36.89;25.59
73112;HTU21D;61301;51.956;5.876;2022-08-03T13:04:32;36.95;25.56
73112;HTU21D;61301;51.956;5.876;2022-08-03T13:07:07;36.70;26.77
73112;HTU21D;61301;51.956;5.876;2022-08-03T13:09:51;36.91;25.73
73112;HTU21D;61301;51.956;5.876;2022-08-03T13:12:26;36.93;25.68
73112;HTU21D;61301;51.956;5.876;2022-08-03T13:14:55;36.85;25.35
73112;HTU21D;61301;51.956;5.876;2022-08-03T13:17:22;36.39;25.94
73112;HTU21D;61301;51.956;5.876;2022-08-03T13:19:51;36.08;26.91
73112;HTU21D;61301;51.956;5.876;2022-08-03T13:22:23;36.37;26.78
73112;HTU21D;61301;51.956;5.876;2022-08-03T13:24:53;36.73;27.19
73112;HTU21D;61301;51.956;5.876;2022-08-03T13:27:32;36.89;27.05
73112;HTU21D;61301;51.956;5.876;2022-08-03T13:30:01;36.95;26.62
73112;HTU21D;61301;51.956;5.876;2022-08-03T13:32:28;37.02;27.07
73112;HTU21D;61301;51.956;5.876;2022-08-03T13:34:54;37.10;26.78
73112;HTU21D;61301;51.956;5.876;2022-08-03T13:37:22;37.25;26.80
73112;HTU21D;61301;51.956;5.876;2022-08-03T13:40:00;37.17;26.92
73112;HTU21D;61301;51.956;5.876;2022-08-03T13:42:38;37.50;26.64
73112;HTU21D;61301;51.956;5.876;2022-08-03T13:48:26;37.32;26.48
73112;HTU21D;61301;51.956;5.876;2022-08-03T13:51:26;37.23;27.11
73112;HTU21D;61301;51.956;5.876;2022-08-03T13:58:02;37.59;27.23
73112;HTU21D;61301;51.956;5.876;2022-08-03T14:00:40;37.61;27.07
73112;HTU21D;61301;51.956;5.876;2022-08-03T14:03:22;37.31;26.55
73112;HTU21D;61301;51.956;5.876;2022-08-03T14:06:25;37.36;26.94
73112;HTU21D;61301;51.956;5.876;2022-08-03T14:09:36;37.57;26.62
73112;HTU21D;61301;51.956;5.876;2022-08-03T14:12:31;37.23;27.45
73112;HTU21D;61301;51.956;5.876;2022-08-03T14:15:11;37.18;27.63
73112;HTU21D;61301;51.956;5.876;2022-08-03T14:17:41;37.06;27.46
73112;HTU21D;61301;51.956;5.876;2022-08-03T14:20:07;36.59;28.03
73112;HTU21D;61301;51.956;5.876;2022-08-03T14:25:02;36.63;28.32
73112;HTU21D;61301;51.956;5.876;2022-08-03T14:27:29;36.82;28.30
73112;HTU21D;61301;51.956;5.876;2022-08-03T14:29:54;36.88;28.17
73112;HTU21D;61301;51.956;5.876;2022-08-03T14:32:25;36.92;28.37
73112;HTU21D;61301;51.956;5.876;2022-08-03T14:34:52;36.99;28.32
73112;HTU21D;61301;51.956;5.876;2022-08-03T14:37:18;36.97;28.74
73112;HTU21D;61301;51.956;5.876;2022-08-03T14:39:44;37.22;27.94
73112;HTU21D;61301;51.956;5.876;2022-08-03T14:42:11;37.19;28.23
73112;HTU21D;61301;51.956;5.876;2022-08-03T14:44:37;37.28;28.16
73112;HTU21D;61301;51.956;5.876;2022-08-03T14:47:03;37.37;27.70
73112;HTU21D;61301;51.956;5.876;2022-08-03T14:49:29;37.07;28.18
73112;HTU21D;61301;51.956;5.876;2022-08-03T14:51:55;36.68;28.79
73112;HTU21D;61301;51.956;5.876;2022-08-03T14:54:21;36.31;29.26
73112;HTU21D;61301;51.956;5.876;2022-08-03T14:56:47;36.62;29.03
73112;HTU21D;61301;51.956;5.876;2022-08-03T14:59:13;36.44;29.64
73112;HTU21D;61301;51.956;5.876;2022-08-03T15:01:39;36.48;29.88
73112;HTU21D;61301;51.956;5.876;2022-08-03T15:04:05;36.34;29.32
73112;HTU21D;61301;51.956;5.876;2022-08-03T15:06:31;36.75;29.14
73112;HTU21D;61301;51.956;5.876;2022-08-03T15:08:57;36.95;28.84
73112;HTU21D;61301;51.956;5.876;2022-08-03T15:11:23;36.85;28.83
73112;HTU21D;61301;51.956;5.876;2022-08-03T15:13:49;36.77;28.86
73112;HTU21D;61301;51.956;5.876;2022-08-03T15:16:15;36.69;29.01
73112;HTU21D;61301;51.956;5.876;2022-08-03T15:18:41;36.64;28.54
73112;HTU21D;61301;51.956;5.876;2022-08-03T15:21:07;36.10;29.64
73112;HTU21D;61301;51.956;5.876;2022-08-03T15:23:33;36.26;29.81
73112;HTU21D;61301;51.956;5.876;2022-08-03T15:25:59;36.43;29.28
73112;HTU21D;61301;51.956;5.876;2022-08-03T15:28:25;36.67;29.14
73112;HTU21D;61301;51.956;5.876;2022-08-03T15:30:51;36.73;28.77
73112;HTU21D;61301;51.956;5.876;2022-08-03T15:33:17;36.78;28.67
73112;HTU21D;61301;51.956;5.876;2022-08-03T15:35:43;36.75;28.36
73112;HTU21D;61301;51.956;5.876;2022-08-03T15:38:11;37.07;28.24
73112;HTU21D;61301;51.956;5.876;2022-08-03T15:40:37;37.02;28.17
73112;HTU21D;61301;51.956;5.876;2022-08-03T15:43:03;37.25;28.02
73112;HTU21D;61301;51.956;5.876;2022-08-03T15:45:29;37.61;28.25
73112;HTU21D;61301;51.956;5.876;2022-08-03T15:47:55;37.71;27.84
73112;HTU21D;61301;51.956;5.876;2022-08-03T15:50:21;37.95;27.49
73112;HTU21D;61301;51.956;5.876;2022-08-03T15:52:47;37.99;27.33
73112;HTU21D;61301;51.956;5.876;2022-08-03T15:55:13;38.12;26.59
73112;HTU21D;61301;51.956;5.876;2022-08-03T15:57:39;37.60;26.64
73112;HTU21D;61301;51.956;5.876;2022-08-03T16:00:06;37.38;27.33
73112;HTU21D;61301;51.956;5.876;2022-08-03T16:02:34;37.43;27.49
73112;HTU21D;61301;51.956;5.876;2022-08-03T16:05:00;37.54;27.58
73112;HTU21D;61301;51.956;5.876;2022-08-03T16:07:26;37.71;27.45
73112;HTU21D;61301;51.956;5.876;2022-08-03T16:10:09;37.28;27.30
73112;HTU21D;61301;51.956;5.876;2022-08-03T16:12:35;37.27;27.52
73112;HTU21D;61301;51.956;5.876;2022-08-03T16:15:03;37.42;27.32
73112;HTU21D;61301;51.956;5.876;2022-08-03T16:17:29;37.58;27.21
73112;HTU21D;61301;51.956;5.876;2022-08-03T16:19:55;37.69;27.39